sensor_id;sensor_type;location;lat;lon;timestamp;P1;durP1;ratioP1;P2;durP2;ratioP2
64011;SDS011;50211;52.768;12.124;2023-04-06T00:00:48;2.23;;;1.47;;
64011;SDS011;50211;52.768;12.124;2023-04-06T00:03:14;2.67;;;1.67;;
64011;SDS011;50211;52.768;12.124;2023-04-06T00:05:40;2.27;;;1.57;;
64011;SDS011;50211;52.768;12.124;2023-04-06T00:08:06;4.00;;;1.93;;
64011;SDS011;50211;52.768;12.124;2023-04-06T00:10:32;5.33;;;1.87;;
64011;SDS011;50211;52.768;12.124;2023-04-06T00:12:58;2.70;;;1.40;;
64011;SDS011;50211;52.768;12.124;2023-04-06T00:15:24;3.10;;;1.43;;
64011;SDS011;50211;52.768;12.124;2023-04-06T00:17:50;3.57;;;1.90;;
64011;SDS011;50211;52.768;12.124;2023-04-06T00:20:16;2.77;;;1.87;;
64011;SDS011;50211;52.768;12.124;2023-04-06T00:22:43;3.37;;;1.50;;
64011;SDS011;50211;52.768;12.124;2023-04-06T00:25:09;3.37;;;1.80;;
64011;SDS011;50211;52.768;12.124;2023-04-06T00:27:36;2.43;;;1.77;;
64011;SDS011;50211;52.768;12.124;2023-04-06T00:30:03;2.47;;;1.90;;
64011;SDS011;50211;52.768;12.124;2023-04-06T00:32:29;3.03;;;1.80;;
64011;SDS011;50211;52.768;12.124;2023-04-06T00:34:55;10.07;;;1.83;;
64011;SDS011;50211;52.768;12.124;2023-04-06T00:37:21;7.80;;;2.10;;
64011;SDS011;50211;52.768;12.124;2023-04-06T00:39:47;2.50;;;1.60;;
64011;SDS011;50211;52.768;12.124;2023-04-06T00:42:12;2.90;;;1.50;;
64011;SDS011;50211;52.768;12.124;2023-04-06T00:44:42;4.50;;;2.00;;
64011;SDS011;50211;52.768;12.124;2023-04-06T00:47:07;5.63;;;1.67;;
64011;SDS011;50211;52.768;12.124;2023-04-06T00:49:33;3.23;;;2.00;;
64011;SDS011;50211;52.768;12.124;2023-04-06T00:51:59;2.87;;;1.70;;
64011;SDS011;50211;52.768;12.124;2023-04-06T00:54:26;2.13;;;1.43;;
64011;SDS011;50211;52.768;12.124;2023-04-06T00:56:52;4.70;;;1.70;;
64011;SDS011;50211;52.768;12.124;2023-04-06T00:59:17;3.97;;;1.67;;
64011;SDS011;50211;52.768;12.124;2023-04-06T01:01:43;2.67;;;1.53;;
64011;SDS011;50211;52.768;12.124;2023-04-06T01:04:09;2.60;;;1.60;;
64011;SDS011;50211;52.768;12.124;2023-04-06T01:06:35;2.23;;;1.73;;
64011;SDS011;50211;52.768;12.124;2023-04-06T01:09:00;8.30;;;1.93;;
64011;SDS011;50211;52.768;12.124;2023-04-06T01:11:26;3.23;;;1.67;;
64011;SDS011;50211;52.768;12.124;2023-04-06T01:13:52;3.70;;;1.73;;
64011;SDS011;50211;52.768;12.124;2023-04-06T01:16:17;2.13;;;1.80;;
64011;SDS011;50211;52.768;12.124;2023-04-06T01:18:43;2.27;;;1.60;;
64011;SDS011;50211;52.768;12.124;2023-04-06T01:21:09;3.67;;;1.53;;
64011;SDS011;50211;52.768;12.124;2023-04-06T01:23:40;5.03;;;2.00;;
64011;SDS011;50211;52.768;12.124;2023-04-06T01:26:10;2.03;;;1.47;;
64011;SDS011;50211;52.768;12.124;2023-04-06T01:28:35;6.97;;;1.90;;
64011;SDS011;50211;52.768;12.124;2023-04-06T01:31:02;4.37;;;2.10;;
64011;SDS011;50211;52.768;12.124;2023-04-06T01:33:28;4.20;;;1.80;;
64011;SDS011;50211;52.768;12.124;2023-04-06T01:35:54;4.20;;;1.87;;
64011;SDS011;50211;52.768;12.124;2023-04-06T01:38:19;2.57;;;1.63;;
64011;SDS011;50211;52.768;12.124;2023-04-06T01:40:45;3.63;;;1.53;;
64011;SDS011;50211;52.768;12.124;2023-04-06T01:43:11;4.03;;;1.70;;
64011;SDS011;50211;52.768;12.124;2023-04-06T01:45:36;5.37;;;1.87;;
64011;SDS011;50211;52.768;12.124;2023-04-06T01:48:02;4.90;;;2.10;;
64011;SDS011;50211;52.768;12.124;2023-04-06T01:50:27;3.17;;;1.73;;
64011;SDS011;50211;52.768;12.124;2023-04-06T01:52:53;3.30;;;1.60;;
64011;SDS011;50211;52.768;12.124;2023-04-06T01:55:18;3.97;;;1.93;;
64011;SDS011;50211;52.768;12.124;2023-04-06T01:57:44;5.40;;;1.80;;
64011;SDS011;50211;52.768;12.124;2023-04-06T02:00:10;2.60;;;1.73;;
64011;SDS011;50211;52.768;12.124;2023-04-06T02:02:36;2.60;;;1.57;;
64011;SDS011;50211;52.768;12.124;2023-04-06T02:05:01;3.00;;;1.43;;
64011;SDS011;50211;52.768;12.124;2023-04-06T02:07:27;9.73;;;2.13;;
64011;SDS011;50211;52.768;12.124;2023-04-06T02:09:53;4.00;;;2.00;;
64011;SDS011;50211;52.768;12.124;2023-04-06T02:12:22;3.43;;;1.90;;
64011;SDS011;50211;52.768;12.124;2023-04-06T02:14:48;9.83;;;2.90;;
64011;SDS011;50211;52.768;12.124;2023-04-06T02:17:14;5.50;;;2.13;;
64011;SDS011;50211;52.768;12.124;2023-04-06T02:19:39;4.23;;;1.70;;
64011;SDS011;50211;52.768;12.124;2023-04-06T02:22:05;3.47;;;1.87;;
64011;SDS011;50211;52.768;12.124;2023-04-06T02:24:31;6.20;;;1.50;;
64011;SDS011;50211;52.768;12.124;2023-04-06T02:26:57;2.00;;;1.80;;
64011;SDS011;50211;52.768;12.124;2023-04-06T02:29:22;3.60;;;2.10;;
64011;SDS011;50211;52.768;12.124;2023-04-06T02:31:48;6.37;;;2.00;;
64011;SDS011;50211;52.768;12.124;2023-04-06T02:34:13;3.50;;;1.57;;
64011;SDS011;50211;52.768;12.124;2023-04-06T02:36:45;6.27;;;1.80;;
64011;SDS011;50211;52.768;12.124;2023-04-06T02:39:12;2.67;;;1.90;;
64011;SDS011;50211;52.768;12.124;2023-04-06T02:41:38;3.17;;;1.53;;
64011;SDS011;50211;52.768;12.124;2023-04-06T02:44:06;2.70;;;1.97;;
64011;SDS011;50211;52.768;12.124;2023-04-06T02:46:33;3.30;;;2.07;;
64011;SDS011;50211;52.768;12.124;2023-04-06T02:48:59;2.13;;;1.33;;
64011;SDS011;50211;52.768;12.124;2023-04-06T02:51:25;2.60;;;1.80;;
64011;SDS011;50211;52.768;12.124;2023-04-06T02:53:51;5.33;;;1.70;;
64011;SDS011;50211;52.768;12.124;2023-04-06T02:56:17;2.30;;;1.50;;
64011;SDS011;50211;52.768;12.124;2023-04-06T02:58:43;6.37;;;2.10;;
64011;SDS011;50211;52.768;12.124;2023-04-06T03:01:08;3.43;;;1.67;;
64011;SDS011;50211;52.768;12.124;2023-04-06T03:03:34;3.27;;;2.03;;
64011;SDS011;50211;52.768;12.124;2023-04-06T03:05:59;5.50;;;1.37;;
64011;SDS011;50211;52.768;12.124;2023-04-06T03:08:25;2.90;;;2.43;;
64011;SDS011;50211;52.768;12.124;2023-04-06T03:10:50;2.17;;;1.57;;
64011;SDS011;50211;52.768;12.124;2023-04-06T03:13:16;1.80;;;1.47;;
64011;SDS011;50211;52.768;12.124;2023-04-06T03:15:42;4.37;;;1.70;;
64011;SDS011;50211;52.768;12.124;2023-04-06T03:18:07;4.30;;;1.47;;
64011;SDS011;50211;52.768;12.124;2023-04-06T03:20:33;3.57;;;2.07;;
64011;SDS011;50211;52.768;12.124;2023-04-06T03:22:58;1.80;;;1.50;;
64011;SDS011;50211;52.768;12.124;2023-04-06T03:25:24;7.37;;;1.80;;
64011;SDS011;50211;52.768;12.124;2023-04-06T03:27:49;2.70;;;1.93;;
64011;SDS011;50211;52.768;12.124;2023-04-06T03:30:15;4.37;;;1.80;;
64011;SDS011;50211;52.768;12.124;2023-04-06T03:32:42;2.03;;;1.50;;
64011;SDS011;50211;52.768;12.124;2023-04-06T03:35:08;2.30;;;1.70;;
64011;SDS011;50211;52.768;12.124;2023-04-06T03:37:34;4.43;;;2.00;;
64011;SDS011;50211;52.768;12.124;2023-04-06T03:40:00;3.20;;;1.83;;
64011;SDS011;50211;52.768;12.124;2023-04-06T03:42:26;3.17;;;1.87;;
64011;SDS011;50211;52.768;12.124;2023-04-06T03:44:51;1.73;;;1.37;;
64011;SDS011;50211;52.768;12.124;2023-04-06T03:47:17;4.03;;;2.17;;
64011;SDS011;50211;52.768;12.124;2023-04-06T03:49:42;3.37;;;1.30;;
64011;SDS011;50211;52.768;12.124;2023-04-06T03:52:08;1.07;;;0.97;;
64011;SDS011;50211;52.768;12.124;2023-04-06T03:54:34;2.07;;;1.37;;
64011;SDS011;50211;52.768;12.124;2023-04-06T03:57:00;5.80;;;1.77;;
64011;SDS011;50211;52.768;12.124;2023-04-06T03:59:25;2.20;;;1.50;;
64011;SDS011;50211;52.768;12.124;2023-04-06T04:01:51;2.03;;;1.40;;
64011;SDS011;50211;52.768;12.124;2023-04-06T04:04:17;2.90;;;1.73;;
64011;SDS011;50211;52.768;12.124;2023-04-06T04:06:42;2.07;;;1.50;;
64011;SDS011;50211;52.768;12.124;2023-04-06T04:09:08;2.23;;;1.60;;
64011;SDS011;50211;52.768;12.124;2023-04-06T04:11:33;3.23;;;1.73;;
64011;SDS011;50211;52.768;12.124;2023-04-06T04:13:59;2.83;;;1.53;;
64011;SDS011;50211;52.768;12.124;2023-04-06T04:16:24;1.90;;;1.50;;
64011;SDS011;50211;52.768;12.124;2023-04-06T04:18:50;2.10;;;1.47;;
64011;SDS011;50211;52.768;12.124;2023-04-06T04:21:15;2.67;;;1.33;;
64011;SDS011;50211;52.768;12.124;2023-04-06T04:23:41;3.37;;;1.73;;
64011;SDS011;50211;52.768;12.124;2023-04-06T04:26:06;4.07;;;2.17;;
64011;SDS011;50211;52.768;12.124;2023-04-06T04:28:32;4.00;;;1.60;;
64011;SDS011;50211;52.768;12.124;2023-04-06T04:30:58;3.23;;;1.80;;
64011;SDS011;50211;52.768;12.124;2023-04-06T04:33:23;1.87;;;1.57;;
64011;SDS011;50211;52.768;12.124;2023-04-06T04:35:49;5.17;;;1.93;;
64011;SDS011;50211;52.768;12.124;2023-04-06T04:38:14;5.87;;;1.60;;
64011;SDS011;50211;52.768;12.124;2023-04-06T04:40:40;2.47;;;1.90;;
64011;SDS011;50211;52.768;12.124;2023-04-06T04:43:05;3.63;;;1.40;;
64011;SDS011;50211;52.768;12.124;2023-04-06T04:45:31;3.57;;;1.93;;
64011;SDS011;50211;52.768;12.124;2023-04-06T04:47:56;3.17;;;1.70;;
64011;SDS011;50211;52.768;12.124;2023-04-06T04:50:22;7.10;;;2.07;;
64011;SDS011;50211;52.768;12.124;2023-04-06T04:52:47;2.40;;;1.87;;
64011;SDS011;50211;52.768;12.124;2023-04-06T04:55:13;3.37;;;2.00;;
64011;SDS011;50211;52.768;12.124;2023-04-06T04:57:39;4.73;;;1.80;;
64011;SDS011;50211;52.768;12.124;2023-04-06T05:00:05;8.80;;;1.80;;
64011;SDS011;50211;52.768;12.124;2023-04-06T05:02:30;2.97;;;1.80;;
64011;SDS011;50211;52.768;12.124;2023-04-06T05:04:56;2.63;;;1.80;;
64011;SDS011;50211;52.768;12.124;2023-04-06T05:07:21;13.07;;;2.13;;
64011;SDS011;50211;52.768;12.124;2023-04-06T05:09:47;6.30;;;2.37;;
64011;SDS011;50211;52.768;12.124;2023-04-06T05:12:13;11.23;;;1.90;;
64011;SDS011;50211;52.768;12.124;2023-04-06T05:14:39;2.50;;;1.80;;
64011;SDS011;50211;52.768;12.124;2023-04-06T05:17:04;7.90;;;2.50;;
64011;SDS011;50211;52.768;12.124;2023-04-06T05:19:30;9.30;;;2.17;;
64011;SDS011;50211;52.768;12.124;2023-04-06T05:21:56;6.00;;;2.10;;
64011;SDS011;50211;52.768;12.124;2023-04-06T05:24:21;5.47;;;2.47;;
64011;SDS011;50211;52.768;12.124;2023-04-06T05:26:47;3.50;;;1.70;;
64011;SDS011;50211;52.768;12.124;2023-04-06T05:29:13;3.07;;;1.83;;
64011;SDS011;50211;52.768;12.124;2023-04-06T05:31:39;11.27;;;2.27;;
64011;SDS011;50211;52.768;12.124;2023-04-06T05:34:05;4.30;;;1.93;;
64011;SDS011;50211;52.768;12.124;2023-04-06T05:36:31;9.33;;;2.17;;
64011;SDS011;50211;52.768;12.124;2023-04-06T05:38:57;2.73;;;1.57;;
64011;SDS011;50211;52.768;12.124;2023-04-06T05:41:23;6.13;;;2.40;;
64011;SDS011;50211;52.768;12.124;2023-04-06T05:43:49;4.77;;;2.47;;
64011;SDS011;50211;52.768;12.124;2023-04-06T05:46:15;6.50;;;2.30;;
64011;SDS011;50211;52.768;12.124;2023-04-06T05:48:40;7.57;;;2.40;;
64011;SDS011;50211;52.768;12.124;2023-04-06T05:51:06;4.53;;;2.67;;
64011;SDS011;50211;52.768;12.124;2023-04-06T05:53:31;3.33;;;2.00;;
64011;SDS011;50211;52.768;12.124;2023-04-06T05:56:01;4.37;;;2.70;;
64011;SDS011;50211;52.768;12.124;2023-04-06T05:58:27;3.73;;;2.70;;
64011;SDS011;50211;52.768;12.124;2023-04-06T06:00:59;5.50;;;2.60;;
64011;SDS011;50211;52.768;12.124;2023-04-06T06:03:25;7.10;;;2.40;;
64011;SDS011;50211;52.768;12.124;2023-04-06T06:05:51;4.97;;;2.20;;
64011;SDS011;50211;52.768;12.124;2023-04-06T06:08:16;6.60;;;2.87;;
64011;SDS011;50211;52.768;12.124;2023-04-06T06:10:42;15.30;;;3.60;;
64011;SDS011;50211;52.768;12.124;2023-04-06T06:13:08;9.80;;;3.10;;
64011;SDS011;50211;52.768;12.124;2023-04-06T06:15:34;2.50;;;2.30;;
64011;SDS011;50211;52.768;12.124;2023-04-06T06:17:59;6.40;;;3.00;;
64011;SDS011;50211;52.768;12.124;2023-04-06T06:20:25;4.80;;;2.37;;
64011;SDS011;50211;52.768;12.124;2023-04-06T06:22:51;4.50;;;2.77;;
64011;SDS011;50211;52.768;12.124;2023-04-06T06:25:17;6.30;;;2.63;;
64011;SDS011;50211;52.768;12.124;2023-04-06T06:27:42;11.37;;;2.73;;
64011;SDS011;50211;52.768;12.124;2023-04-06T06:30:08;10.47;;;3.17;;
64011;SDS011;50211;52.768;12.124;2023-04-06T06:32:34;12.23;;;2.90;;
64011;SDS011;50211;52.768;12.124;2023-04-06T06:34:59;4.87;;;2.70;;
64011;SDS011;50211;52.768;12.124;2023-04-06T06:37:25;6.90;;;3.27;;
64011;SDS011;50211;52.768;12.124;2023-04-06T06:39:50;3.87;;;2.93;;
64011;SDS011;50211;52.768;12.124;2023-04-06T06:42:16;6.63;;;3.07;;
64011;SDS011;50211;52.768;12.124;2023-04-06T06:44:42;9.50;;;3.33;;
64011;SDS011;50211;52.768;12.124;2023-04-06T06:47:07;5.93;;;3.20;;
64011;SDS011;50211;52.768;12.124;2023-04-06T06:49:33;7.80;;;3.80;;
64011;SDS011;50211;52.768;12.124;2023-04-06T06:51:58;8.50;;;3.80;;
64011;SDS011;50211;52.768;12.124;2023-04-06T06:54:24;9.00;;;4.30;;
64011;SDS011;50211;52.768;12.124;2023-04-06T06:56:49;7.00;;;3.53;;
64011;SDS011;50211;52.768;12.124;2023-04-06T06:59:15;8.47;;;2.93;;
64011;SDS011;50211;52.768;12.124;2023-04-06T07:01:41;5.90;;;3.10;;
64011;SDS011;50211;52.768;12.124;2023-04-06T07:04:07;7.07;;;3.30;;
64011;SDS011;50211;52.768;12.124;2023-04-06T07:06:34;6.07;;;3.30;;
64011;SDS011;50211;52.768;12.124;2023-04-06T07:09:00;6.60;;;4.00;;
64011;SDS011;50211;52.768;12.124;2023-04-06T07:11:28;6.13;;;3.07;;
64011;SDS011;50211;52.768;12.124;2023-04-06T07:13:54;6.30;;;3.40;;
64011;SDS011;50211;52.768;12.124;2023-04-06T07:16:20;12.37;;;4.20;;
64011;SDS011;50211;52.768;12.124;2023-04-06T07:18:45;6.30;;;3.07;;
64011;SDS011;50211;52.768;12.124;2023-04-06T07:21:11;6.20;;;3.03;;
64011;SDS011;50211;52.768;12.124;2023-04-06T07:23:37;6.43;;;3.30;;
64011;SDS011;50211;52.768;12.124;2023-04-06T07:26:02;8.50;;;3.47;;
64011;SDS011;50211;52.768;12.124;2023-04-06T07:28:28;9.20;;;4.13;;
64011;SDS011;50211;52.768;12.124;2023-04-06T07:30:53;7.00;;;3.87;;
64011;SDS011;50211;52.768;12.124;2023-04-06T07:33:19;10.30;;;4.27;;
64011;SDS011;50211;52.768;12.124;2023-04-06T07:35:45;6.30;;;3.63;;
64011;SDS011;50211;52.768;12.124;2023-04-06T07:38:11;5.03;;;3.07;;
64011;SDS011;50211;52.768;12.124;2023-04-06T07:40:36;6.97;;;3.93;;
64011;SDS011;50211;52.768;12.124;2023-04-06T07:43:02;7.00;;;3.63;;
64011;SDS011;50211;52.768;12.124;2023-04-06T07:45:28;5.53;;;3.33;;
64011;SDS011;50211;52.768;12.124;2023-04-06T07:47:54;8.30;;;3.80;;
64011;SDS011;50211;52.768;12.124;2023-04-06T07:50:19;6.73;;;3.27;;
64011;SDS011;50211;52.768;12.124;2023-04-06T07:52:45;7.23;;;3.47;;
64011;SDS011;50211;52.768;12.124;2023-04-06T07:55:11;6.40;;;3.50;;
64011;SDS011;50211;52.768;12.124;2023-04-06T07:57:36;7.13;;;3.80;;
64011;SDS011;50211;52.768;12.124;2023-04-06T08:00:02;5.50;;;3.50;;
64011;SDS011;50211;52.768;12.124;2023-04-06T08:02:29;7.73;;;3.70;;
64011;SDS011;50211;52.768;12.124;2023-04-06T08:04:56;6.73;;;3.33;;
64011;SDS011;50211;52.768;12.124;2023-04-06T08:07:21;7.03;;;3.40;;
64011;SDS011;50211;52.768;12.124;2023-04-06T08:09:47;8.07;;;3.43;;
64011;SDS011;50211;52.768;12.124;2023-04-06T08:12:12;4.33;;;2.90;;
64011;SDS011;50211;52.768;12.124;2023-04-06T08:14:38;8.63;;;3.57;;
64011;SDS011;50211;52.768;12.124;2023-04-06T08:17:04;7.17;;;3.20;;
64011;SDS011;50211;52.768;12.124;2023-04-06T08:19:30;9.00;;;3.33;;
64011;SDS011;50211;52.768;12.124;2023-04-06T08:21:55;22.23;;;4.53;;
64011;SDS011;50211;52.768;12.124;2023-04-06T08:24:21;5.43;;;3.40;;
64011;SDS011;50211;52.768;12.124;2023-04-06T08:26:46;11.23;;;3.60;;
64011;SDS011;50211;52.768;12.124;2023-04-06T08:29:12;6.53;;;3.27;;
64011;SDS011;50211;52.768;12.124;2023-04-06T08:31:37;5.00;;;2.67;;
64011;SDS011;50211;52.768;12.124;2023-04-06T08:34:03;5.70;;;3.37;;
64011;SDS011;50211;52.768;12.124;2023-04-06T08:36:30;5.03;;;2.50;;
64011;SDS011;50211;52.768;12.124;2023-04-06T08:38:56;5.20;;;2.80;;
64011;SDS011;50211;52.768;12.124;2023-04-06T08:41:24;5.47;;;3.00;;
64011;SDS011;50211;52.768;12.124;2023-04-06T08:43:54;4.50;;;2.67;;
64011;SDS011;50211;52.768;12.124;2023-04-06T08:46:22;3.90;;;2.33;;
64011;SDS011;50211;52.768;12.124;2023-04-06T08:48:54;4.20;;;2.35;;
64011;SDS011;50211;52.768;12.124;2023-04-06T08:51:24;4.78;;;2.58;;
64011;SDS011;50211;52.768;12.124;2023-04-06T08:53:52;3.57;;;2.70;;
64011;SDS011;50211;52.768;12.124;2023-04-06T08:56:20;3.73;;;2.67;;
64011;SDS011;50211;52.768;12.124;2023-04-06T08:58:46;4.53;;;2.50;;
64011;SDS011;50211;52.768;12.124;2023-04-06T09:01:13;4.23;;;2.77;;
64011;SDS011;50211;52.768;12.124;2023-04-06T09:03:41;6.77;;;3.10;;
64011;SDS011;50211;52.768;12.124;2023-04-06T09:06:08;7.63;;;2.87;;
64011;SDS011;50211;52.768;12.124;2023-04-06T09:08:34;4.65;;;2.75;;
64011;SDS011;50211;52.768;12.124;2023-04-06T09:11:01;3.70;;;3.03;;
64011;SDS011;50211;52.768;12.124;2023-04-06T09:13:27;8.63;;;3.37;;
64011;SDS011;50211;52.768;12.124;2023-04-06T09:16:03;6.27;;;3.10;;
64011;SDS011;50211;52.768;12.124;2023-04-06T09:18:31;4.13;;;3.00;;
64011;SDS011;50211;52.768;12.124;2023-04-06T09:20:58;6.47;;;3.17;;
64011;SDS011;50211;52.768;12.124;2023-04-06T09:23:23;6.55;;;3.70;;
64011;SDS011;50211;52.768;12.124;2023-04-06T09:25:49;5.35;;;3.80;;
64011;SDS011;50211;52.768;12.124;2023-04-06T09:28:15;4.50;;;3.28;;
64011;SDS011;50211;52.768;12.124;2023-04-06T09:30:47;5.57;;;3.40;;
64011;SDS011;50211;52.768;12.124;2023-04-06T09:33:21;5.47;;;3.05;;
64011;SDS011;50211;52.768;12.124;2023-04-06T09:35:50;6.22;;;3.30;;
64011;SDS011;50211;52.768;12.124;2023-04-06T09:38:16;5.10;;;3.00;;
64011;SDS011;50211;52.768;12.124;2023-04-06T09:40:49;5.57;;;3.28;;
64011;SDS011;50211;52.768;12.124;2023-04-06T09:43:26;4.85;;;3.83;;
64011;SDS011;50211;52.768;12.124;2023-04-06T09:45:52;4.35;;;3.33;;
64011;SDS011;50211;52.768;12.124;2023-04-06T09:48:19;4.78;;;4.00;;
64011;SDS011;50211;52.768;12.124;2023-04-06T09:50:47;4.90;;;3.13;;
64011;SDS011;50211;52.768;12.124;2023-04-06T09:53:14;3.50;;;2.80;;
64011;SDS011;50211;52.768;12.124;2023-04-06T09:55:43;4.68;;;3.33;;
64011;SDS011;50211;52.768;12.124;2023-04-06T09:58:15;5.50;;;3.28;;
64011;SDS011;50211;52.768;12.124;2023-04-06T10:01:07;5.45;;;3.13;;
64011;SDS011;50211;52.768;12.124;2023-04-06T10:06:10;5.82;;;3.30;;
64011;SDS011;50211;52.768;12.124;2023-04-06T10:08:38;4.53;;;3.50;;
64011;SDS011;50211;52.768;12.124;2023-04-06T10:11:07;6.28;;;3.30;;
64011;SDS011;50211;52.768;12.124;2023-04-06T10:13:34;4.85;;;3.30;;
64011;SDS011;50211;52.768;12.124;2023-04-06T10:16:00;4.82;;;3.08;;
64011;SDS011;50211;52.768;12.124;2023-04-06T10:18:28;3.88;;;3.33;;
64011;SDS011;50211;52.768;12.124;2023-04-06T10:21:00;6.30;;;3.30;;
64011;SDS011;50211;52.768;12.124;2023-04-06T10:23:44;6.47;;;3.20;;
64011;SDS011;50211;52.768;12.124;2023-04-06T10:26:13;9.55;;;3.70;;
64011;SDS011;50211;52.768;12.124;2023-04-06T10:28:41;4.65;;;2.92;;
64011;SDS011;50211;52.768;12.124;2023-04-06T10:31:08;5.53;;;3.58;;
64011;SDS011;50211;52.768;12.124;2023-04-06T10:33:34;7.28;;;3.05;;
64011;SDS011;50211;52.768;12.124;2023-04-06T10:36:21;5.97;;;3.08;;
64011;SDS011;50211;52.768;12.124;2023-04-06T10:38:53;7.78;;;3.13;;
64011;SDS011;50211;52.768;12.124;2023-04-06T10:41:23;9.68;;;3.92;;
64011;SDS011;50211;52.768;12.124;2023-04-06T10:43:56;4.45;;;3.40;;
64011;SDS011;50211;52.768;12.124;2023-04-06T10:46:26;7.97;;;3.50;;
64011;SDS011;50211;52.768;12.124;2023-04-06T10:48:55;3.75;;;3.38;;
64011;SDS011;50211;52.768;12.124;2023-04-06T10:51:25;4.40;;;3.50;;
64011;SDS011;50211;52.768;12.124;2023-04-06T10:53:52;4.93;;;3.25;;
64011;SDS011;50211;52.768;12.124;2023-04-06T10:56:21;5.22;;;3.38;;
64011;SDS011;50211;52.768;12.124;2023-04-06T10:58:48;4.38;;;3.13;;
64011;SDS011;50211;52.768;12.124;2023-04-06T11:01:16;4.60;;;3.50;;
64011;SDS011;50211;52.768;12.124;2023-04-06T11:03:45;17.67;;;4.32;;
64011;SDS011;50211;52.768;12.124;2023-04-06T11:06:25;4.95;;;3.67;;
64011;SDS011;50211;52.768;12.124;2023-04-06T11:08:52;5.90;;;4.03;;
64011;SDS011;50211;52.768;12.124;2023-04-06T11:11:20;6.35;;;3.65;;
64011;SDS011;50211;52.768;12.124;2023-04-06T11:13:48;38.20;;;5.70;;
64011;SDS011;50211;52.768;12.124;2023-04-06T11:16:22;5.30;;;3.28;;
64011;SDS011;50211;52.768;12.124;2023-04-06T11:21:30;3.97;;;3.22;;
64011;SDS011;50211;52.768;12.124;2023-04-06T11:24:09;4.47;;;3.83;;
64011;SDS011;50211;52.768;12.124;2023-04-06T11:29:10;7.28;;;4.30;;
64011;SDS011;50211;52.768;12.124;2023-04-06T11:31:40;7.38;;;4.47;;
64011;SDS011;50211;52.768;12.124;2023-04-06T11:34:08;8.35;;;3.83;;
64011;SDS011;50211;52.768;12.124;2023-04-06T11:36:41;6.50;;;4.10;;
64011;SDS011;50211;52.768;12.124;2023-04-06T11:39:07;5.28;;;4.45;;
64011;SDS011;50211;52.768;12.124;2023-04-06T11:41:33;5.05;;;3.72;;
64011;SDS011;50211;52.768;12.124;2023-04-06T11:44:00;6.43;;;3.80;;
64011;SDS011;50211;52.768;12.124;2023-04-06T11:46:30;5.28;;;3.95;;
64011;SDS011;50211;52.768;12.124;2023-04-06T11:48:59;7.25;;;4.18;;
64011;SDS011;50211;52.768;12.124;2023-04-06T11:51:26;4.45;;;3.90;;
64011;SDS011;50211;52.768;12.124;2023-04-06T11:53:52;12.15;;;4.68;;
64011;SDS011;50211;52.768;12.124;2023-04-06T11:56:24;4.97;;;3.75;;
64011;SDS011;50211;52.768;12.124;2023-04-06T11:58:52;6.70;;;4.10;;
64011;SDS011;50211;52.768;12.124;2023-04-06T12:01:19;6.53;;;4.07;;
64011;SDS011;50211;52.768;12.124;2023-04-06T12:03:45;6.15;;;4.15;;
64011;SDS011;50211;52.768;12.124;2023-04-06T12:06:10;6.28;;;4.45;;
64011;SDS011;50211;52.768;12.124;2023-04-06T12:08:36;6.32;;;4.22;;
64011;SDS011;50211;52.768;12.124;2023-04-06T12:11:01;6.20;;;4.10;;
64011;SDS011;50211;52.768;12.124;2023-04-06T12:13:27;5.53;;;4.38;;
64011;SDS011;50211;52.768;12.124;2023-04-06T12:15:53;7.40;;;4.72;;
64011;SDS011;50211;52.768;12.124;2023-04-06T12:18:18;6.43;;;4.45;;
64011;SDS011;50211;52.768;12.124;2023-04-06T12:20:44;9.82;;;4.43;;
64011;SDS011;50211;52.768;12.124;2023-04-06T12:23:09;6.57;;;3.90;;
64011;SDS011;50211;52.768;12.124;2023-04-06T12:25:35;5.63;;;4.55;;
64011;SDS011;50211;52.768;12.124;2023-04-06T12:28:00;4.78;;;4.30;;
64011;SDS011;50211;52.768;12.124;2023-04-06T12:30:26;4.97;;;4.10;;
64011;SDS011;50211;52.768;12.124;2023-04-06T12:32:51;7.25;;;4.50;;
64011;SDS011;50211;52.768;12.124;2023-04-06T12:35:17;6.30;;;4.32;;
64011;SDS011;50211;52.768;12.124;2023-04-06T12:37:42;15.82;;;5.05;;
64011;SDS011;50211;52.768;12.124;2023-04-06T12:40:08;7.38;;;4.40;;
64011;SDS011;50211;52.768;12.124;2023-04-06T12:42:35;8.63;;;4.25;;
64011;SDS011;50211;52.768;12.124;2023-04-06T12:45:01;6.47;;;4.30;;
64011;SDS011;50211;52.768;12.124;2023-04-06T12:47:27;6.57;;;3.97;;
64011;SDS011;50211;52.768;12.124;2023-04-06T12:49:53;36.65;;;5.70;;
64011;SDS011;50211;52.768;12.124;2023-04-06T12:52:20;6.53;;;4.50;;
64011;SDS011;50211;52.768;12.124;2023-04-06T12:54:47;5.57;;;3.95;;
64011;SDS011;50211;52.768;12.124;2023-04-06T12:57:12;7.32;;;4.28;;
64011;SDS011;50211;52.768;12.124;2023-04-06T12:59:38;6.43;;;4.30;;
64011;SDS011;50211;52.768;12.124;2023-04-06T13:02:03;6.22;;;4.55;;
64011;SDS011;50211;52.768;12.124;2023-04-06T13:04:29;5.65;;;4.40;;
64011;SDS011;50211;52.768;12.124;2023-04-06T13:06:55;10.48;;;5.07;;
64011;SDS011;50211;52.768;12.124;2023-04-06T13:09:21;6.40;;;4.60;;
64011;SDS011;50211;52.768;12.124;2023-04-06T13:11:47;5.97;;;4.63;;
64011;SDS011;50211;52.768;12.124;2023-04-06T13:14:12;6.20;;;4.07;;
64011;SDS011;50211;52.768;12.124;2023-04-06T13:16:38;46.65;;;7.65;;
64011;SDS011;50211;52.768;12.124;2023-04-06T13:19:03;5.15;;;4.03;;
64011;SDS011;50211;52.768;12.124;2023-04-06T13:21:29;6.93;;;4.13;;
64011;SDS011;50211;52.768;12.124;2023-04-06T13:23:55;6.75;;;4.70;;
64011;SDS011;50211;52.768;12.124;2023-04-06T13:26:20;8.40;;;4.25;;
64011;SDS011;50211;52.768;12.124;2023-04-06T13:28:46;9.95;;;4.70;;
64011;SDS011;50211;52.768;12.124;2023-04-06T13:31:12;6.43;;;4.70;;
64011;SDS011;50211;52.768;12.124;2023-04-06T13:33:37;6.78;;;4.60;;
64011;SDS011;50211;52.768;12.124;2023-04-06T13:36:04;6.07;;;4.07;;
64011;SDS011;50211;52.768;12.124;2023-04-06T13:38:31;5.20;;;3.90;;
64011;SDS011;50211;52.768;12.124;2023-04-06T13:40:58;4.82;;;4.15;;
64011;SDS011;50211;52.768;12.124;2023-04-06T13:43:24;5.60;;;4.47;;
64011;SDS011;50211;52.768;12.124;2023-04-06T13:45:52;14.65;;;4.75;;
64011;SDS011;50211;52.768;12.124;2023-04-06T13:48:19;12.57;;;4.60;;
64011;SDS011;50211;52.768;12.124;2023-04-06T13:50:45;5.78;;;4.20;;
64011;SDS011;50211;52.768;12.124;2023-04-06T13:53:11;10.32;;;4.53;;
64011;SDS011;50211;52.768;12.124;2023-04-06T13:55:37;5.60;;;4.30;;
64011;SDS011;50211;52.768;12.124;2023-04-06T13:58:03;4.88;;;3.90;;
64011;SDS011;50211;52.768;12.124;2023-04-06T14:00:28;7.03;;;5.05;;
64011;SDS011;50211;52.768;12.124;2023-04-06T14:02:54;8.27;;;4.97;;
64011;SDS011;50211;52.768;12.124;2023-04-06T14:05:20;6.90;;;4.30;;
64011;SDS011;50211;52.768;12.124;2023-04-06T14:07:46;5.28;;;4.18;;
64011;SDS011;50211;52.768;12.124;2023-04-06T14:10:12;6.75;;;4.20;;
64011;SDS011;50211;52.768;12.124;2023-04-06T14:12:40;9.63;;;4.72;;
64011;SDS011;50211;52.768;12.124;2023-04-06T14:15:06;6.15;;;4.05;;
64011;SDS011;50211;52.768;12.124;2023-04-06T14:17:33;4.93;;;4.22;;
64011;SDS011;50211;52.768;12.124;2023-04-06T14:19:58;5.30;;;4.43;;
64011;SDS011;50211;52.768;12.124;2023-04-06T14:22:24;7.95;;;4.55;;
64011;SDS011;50211;52.768;12.124;2023-04-06T14:24:51;6.32;;;4.97;;
64011;SDS011;50211;52.768;12.124;2023-04-06T14:27:16;6.68;;;4.18;;
64011;SDS011;50211;52.768;12.124;2023-04-06T14:29:42;6.47;;;4.68;;
64011;SDS011;50211;52.768;12.124;2023-04-06T14:32:07;5.60;;;4.35;;
64011;SDS011;50211;52.768;12.124;2023-04-06T14:34:33;12.45;;;5.10;;
64011;SDS011;50211;52.768;12.124;2023-04-06T14:36:58;6.38;;;4.50;;